createdAt,value
2019-01-26T00:02:29.606Z,99752
2019-01-26T00:07:52.273Z,99757
2019-01-26T00:13:15.597Z,99750
2019-01-26T00:18:38.438Z,99755
2019-01-26T00:24:01.011Z,99745
2019-01-26T00:29:24.618Z,99736
2019-01-26T00:34:47.397Z,99738
2019-01-26T00:40:10.060Z,99739
2019-01-26T00:45:32.846Z,99737
2019-01-26T00:50:55.826Z,99736
2019-01-26T00:56:18.817Z,99730
2019-01-26T01:01:41.542Z,99722
2019-01-26T01:07:04.227Z,99727
2019-01-26T01:12:26.918Z,99726
2019-01-26T01:17:49.801Z,99716
2019-01-26T01:23:12.530Z,99714
2019-01-26T01:28:35.290Z,99711
2019-01-26T01:33:58.024Z,99703
2019-01-26T01:39:20.811Z,99705
2019-01-26T01:44:44.136Z,99702
2019-01-26T01:50:06.915Z,99695
2019-01-26T01:55:30.749Z,99694
2019-01-26T02:00:54.077Z,99691
2019-01-26T02:06:16.793Z,99684
2019-01-26T02:11:39.890Z,99693
2019-01-26T02:17:03.183Z,99689
2019-01-26T02:22:25.984Z,99685
2019-01-26T02:27:48.697Z,99674
2019-01-26T02:33:11.415Z,99675
2019-01-26T02:38:34.104Z,99682
2019-01-26T02:43:56.798Z,99671
2019-01-26T02:49:20.034Z,99656
2019-01-26T02:54:42.714Z,99640
2019-01-26T03:00:05.401Z,99638
2019-01-26T03:05:28.153Z,99637
2019-01-26T03:10:51.027Z,99634
2019-01-26T03:16:13.757Z,99640
2019-01-26T03:21:36.483Z,99640
2019-01-26T03:27:00.223Z,99640
2019-01-26T03:32:22.889Z,99634
2019-01-26T03:37:45.631Z,99621
2019-01-26T03:43:08.440Z,99622
2019-01-26T03:48:31.157Z,99610
2019-01-26T03:53:54.516Z,99610
2019-01-26T03:59:17.217Z,99607
2019-01-26T04:04:39.883Z,99611
2019-01-26T04:10:02.567Z,99605
2019-01-26T04:15:26.097Z,99601
2019-01-26T04:20:48.770Z,99599
2019-01-26T04:26:11.450Z,99587
2019-01-26T04:31:34.214Z,99585
2019-01-26T04:36:57.421Z,99578
2019-01-26T04:42:20.420Z,99571
2019-01-26T04:47:43.109Z,99572
2019-01-26T04:53:05.900Z,99559
2019-01-26T04:58:28.665Z,99567
2019-01-26T05:03:51.388Z,99557
2019-01-26T05:09:14.057Z,99528
2019-01-26T05:14:36.763Z,99531
2019-01-26T05:19:59.465Z,99524
2019-01-26T05:25:22.238Z,99524
2019-01-26T05:30:45.693Z,99527
2019-01-26T05:36:08.405Z,99519
2019-01-26T05:41:31.091Z,99518
2019-01-26T05:46:53.788Z,99518
2019-01-26T05:52:16.482Z,99508
2019-01-26T05:57:39.213Z,99516
2019-01-26T06:03:01.901Z,99511
2019-01-26T06:08:24.583Z,99509
2019-01-26T06:13:48.187Z,99500
2019-01-26T06:19:11.551Z,99492
2019-01-26T06:24:34.285Z,99491
2019-01-26T06:29:58.074Z,99486
2019-01-26T06:35:20.788Z,99479
2019-01-26T06:40:43.495Z,99482
2019-01-26T06:46:06.328Z,99478
2019-01-26T06:51:29.878Z,99475
2019-01-26T06:56:54.109Z,99478
2019-01-26T07:02:16.825Z,99476
2019-01-26T07:07:40.217Z,99488
2019-01-26T07:13:03.112Z,99490
2019-01-26T07:18:26.038Z,99484
2019-01-26T07:23:48.733Z,99490
2019-01-26T07:29:12.017Z,99493
2019-01-26T07:34:35.542Z,99491
2019-01-26T07:39:59.030Z,99500
2019-01-26T07:45:21.722Z,99497
2019-01-26T07:50:45.408Z,99497
2019-01-26T07:56:08.167Z,99499
2019-01-26T08:01:30.960Z,99502
2019-01-26T08:06:53.671Z,99503
2019-01-26T08:12:18.579Z,99504
2019-01-26T08:17:41.382Z,99500
2019-01-26T08:23:05.433Z,99508
2019-01-26T08:28:28.318Z,99503
2019-01-26T08:33:51.035Z,99505
2019-01-26T08:39:13.713Z,99514
2019-01-26T08:44:36.415Z,99516
2019-01-26T08:49:59.150Z,99516
2019-01-26T08:55:21.867Z,99512
2019-01-26T09:00:44.589Z,99515
2019-01-26T09:06:08.167Z,99512
2019-01-26T09:11:31.731Z,99508
2019-01-26T09:16:54.455Z,99520
2019-01-26T09:22:17.162Z,99520
2019-01-26T09:27:39.833Z,99518
2019-01-26T09:33:03.044Z,99519
2019-01-26T09:38:27.555Z,99519
2019-01-26T09:43:50.388Z,99516
2019-01-26T09:49:13.595Z,99516
2019-01-26T09:54:36.264Z,99514
2019-01-26T09:59:59.025Z,99529
2019-01-26T10:05:21.776Z,99531
2019-01-26T10:10:45.600Z,99529
2019-01-26T10:16:08.398Z,99531
2019-01-26T10:21:31.388Z,99524
2019-01-26T10:26:54.282Z,99525
2019-01-26T10:32:17.209Z,99514
2019-01-26T10:37:40.260Z,99514
2019-01-26T10:43:03.004Z,99515
2019-01-26T10:48:25.694Z,99510
2019-01-26T10:53:48.848Z,99510
2019-01-26T10:59:11.564Z,99499
2019-01-26T11:04:34.239Z,99498
2019-01-26T11:09:56.948Z,99493
2019-01-26T11:15:20.161Z,99494
2019-01-26T11:20:42.926Z,99480
2019-01-26T11:26:05.723Z,99484
2019-01-26T11:31:28.387Z,99485
2019-01-26T11:36:51.097Z,99478
2019-01-26T11:42:13.814Z,99476
2019-01-26T11:47:36.494Z,99469
2019-01-26T11:52:59.205Z,99465
2019-01-26T11:58:22.347Z,99457
2019-01-26T12:03:45.351Z,99451
2019-01-26T12:09:09.499Z,99452
2019-01-26T12:14:32.354Z,99447
2019-01-26T12:19:55.398Z,99452
2019-01-26T12:25:18.436Z,99441
2019-01-26T12:30:40.331Z,99430
2019-01-26T12:36:03.090Z,99430
2019-01-26T12:41:26.888Z,99418
2019-01-26T12:46:49.830Z,99416
2019-01-26T12:52:12.883Z,99414
2019-01-26T12:57:36.333Z,99407
2019-01-26T13:02:59.968Z,99403
2019-01-26T13:08:23.281Z,99406
2019-01-26T13:13:46.848Z,99397
2019-01-26T13:19:09.604Z,99385
2019-01-26T13:24:32.350Z,99390
2019-01-26T13:29:56.208Z,99377
2019-01-26T13:35:20.208Z,99375
2019-01-26T13:40:43.070Z,99371
2019-01-26T13:46:05.806Z,99363
2019-01-26T13:51:28.465Z,99359
2019-01-26T13:56:52.220Z,99354
2019-01-26T14:02:15.005Z,99353
2019-01-26T14:07:39.070Z,99342
2019-01-26T14:13:01.830Z,99337
2019-01-26T14:18:24.493Z,99330
2019-01-26T14:23:47.236Z,99331
2019-01-26T14:29:10.414Z,99320
2019-01-26T14:34:33.315Z,99314
2019-01-26T14:39:56.100Z,99298
2019-01-26T14:45:19.087Z,99298
2019-01-26T14:50:42.549Z,99297
2019-01-26T14:56:05.425Z,99293
2019-01-26T15:01:28.310Z,99289
2019-01-26T15:06:51.241Z,99283
2019-01-26T15:12:14.029Z,99284
2019-01-26T15:17:36.997Z,99279
2019-01-26T15:22:59.913Z,99262
2019-01-26T15:28:22.904Z,99262
2019-01-26T15:33:44.813Z,99255
2019-01-26T15:39:07.998Z,99243
2019-01-26T15:44:30.870Z,99235
2019-01-26T15:49:54.011Z,99227
2019-01-26T15:55:17.286Z,99222
2019-01-26T16:00:40.114Z,99217
2019-01-26T16:06:04.036Z,99210
2019-01-26T16:11:27.049Z,99203
2019-01-26T16:16:50.154Z,99201
2019-01-26T16:22:14.401Z,99191
2019-01-26T16:27:37.464Z,99189
2019-01-26T16:33:00.364Z,99182
2019-01-26T16:38:23.572Z,99172
2019-01-26T16:43:54.991Z,99167
2019-01-26T16:49:17.691Z,99157
2019-01-26T16:54:41.514Z,99146
2019-01-26T17:00:04.246Z,99138
2019-01-26T17:05:27.483Z,99124
2019-01-26T17:10:51.317Z,99118
2019-01-26T17:16:15.096Z,99105
2019-01-26T17:21:37.888Z,99102
2019-01-26T17:27:00.723Z,99091
2019-01-26T17:32:24.197Z,99072
2019-01-26T17:37:47.089Z,99066
2019-01-26T17:43:11.918Z,99053
2019-01-26T17:48:34.766Z,99045
2019-01-26T17:53:57.723Z,99032
2019-01-26T17:59:21.043Z,99016
2019-01-26T18:04:44.220Z,99005
2019-01-26T18:10:08.516Z,98998
2019-01-26T18:15:31.337Z,98997
2019-01-26T18:20:54.376Z,98990
2019-01-26T18:26:17.107Z,98972
2019-01-26T18:31:39.975Z,98963
2019-01-26T18:37:02.899Z,98950
2019-01-26T18:42:25.733Z,98946
2019-01-26T18:47:48.418Z,98944
2019-01-26T18:53:11.371Z,98938
2019-01-26T18:58:34.146Z,98927
2019-01-26T19:03:56.896Z,98910
2019-01-26T19:09:19.597Z,98904
2019-01-26T19:14:43.040Z,98896
2019-01-26T19:20:05.917Z,98894
2019-01-26T19:25:28.799Z,98879
2019-01-26T19:30:51.552Z,98877
2019-01-26T19:36:14.341Z,98865
2019-01-26T19:41:37.091Z,98850
2019-01-26T19:46:59.864Z,98833
2019-01-26T19:52:23.127Z,98837
2019-01-26T19:57:46.001Z,98830
2019-01-26T20:03:08.958Z,98825
2019-01-26T20:08:32.660Z,98814
2019-01-26T20:13:55.605Z,98801
2019-01-26T20:19:18.548Z,98790
2019-01-26T20:24:41.994Z,98783
2019-01-26T20:30:04.781Z,98771
2019-01-26T20:35:27.735Z,98759
2019-01-26T20:40:51.094Z,98753
2019-01-26T20:46:15.015Z,98744
2019-01-26T20:51:38.043Z,98725
2019-01-26T20:57:00.780Z,98719
2019-01-26T21:02:34.271Z,98700
2019-01-26T21:07:57.292Z,98688
2019-01-26T21:13:20.085Z,98679
2019-01-26T21:18:42.840Z,98666
2019-01-26T21:24:05.566Z,98643
2019-01-26T21:29:28.240Z,98635
2019-01-26T21:34:51.244Z,98620
2019-01-26T21:40:14.580Z,98624
2019-01-26T21:45:37.459Z,98605
2019-01-26T21:51:00.233Z,98606
2019-01-26T21:56:23.226Z,98607
2019-01-26T22:01:46.126Z,98589
2019-01-26T22:07:09.184Z,98585
2019-01-26T22:12:32.411Z,98580
2019-01-26T22:17:56.059Z,98569
2019-01-26T22:23:18.922Z,98555
2019-01-26T22:28:41.932Z,98547
2019-01-26T22:34:04.932Z,98538
2019-01-26T22:39:27.710Z,98528
2019-01-26T22:44:50.826Z,98512
2019-01-26T22:50:13.902Z,98504
2019-01-26T22:55:36.985Z,98500
2019-01-26T23:00:59.744Z,98484
2019-01-26T23:06:22.519Z,98474
2019-01-26T23:11:45.268Z,98463
2019-01-26T23:17:08.197Z,98451
2019-01-26T23:22:31.003Z,98439
2019-01-26T23:27:53.922Z,98423
2019-01-26T23:33:17.789Z,98408
2019-01-26T23:38:40.719Z,98398
2019-01-26T23:44:03.459Z,98378
2019-01-26T23:49:26.189Z,98362
2019-01-26T23:54:48.910Z,98357
